Chesapeake — WDD3041 — position and weather

sailwx.info

Track history (hours):
 
Tides and Currents Weather Stations Pressure Air Temp Water Temp Dewpoint Dewpoint Depression Visibility Wind Speed Wind Dir Waves Ship Positions

Chesapeake

Owner: Vane Line Bunkering, Baltimore, MD. More information available from US FCC via Universal Licensing System and Coast Guard Vessel Documentation Center.

Last reported at 2015-Sep-01 13:32 UTC. Time now 2015-Sep-01 14:13 UTC.
Position N 39°54' W 075°12'.

Length 34 m; draft 16 m.

Type: Tug. MMSI: 367123040.

Date/timePositionNaut miles runAvg speedWind from/ knotsBaromVisibWave heightAir tempDewpointWater temp
2015-Sep-01 13:32N 39°54' W 075°12'0 0.0
2015-Sep-01 12:33N 39°54' W 075°12'0 0.0
2015-Sep-01 11:31N 39°54' W 075°12'0 0.3
2015-Sep-01 10:33N 39°54' W 075°12'4 4.1
2015-Sep-01 09:33N 39°51' W 075°16'2 2.3
2015-Sep-01 08:33N 39°51' W 075°19'5 4.9
2015-Sep-01 07:33N 39°48' W 075°24'5 4.6
2015-Sep-01 06:33N 39°45' W 075°29'7 6.7
2015-Sep-01 05:33N 39°39' W 075°33'9 8.7
2015-Sep-01 04:33N 39°31' W 075°33'10 9.7
2015-Sep-01 03:33N 39°22' W 075°27'8 8.3
2015-Sep-01 02:33N 39°16' W 075°20'1212.0
2015-Sep-01 01:32N 39°06' W 075°12'1110.6
2015-Sep-01 00:29N 38°56' W 075°05'8 9.1
2015-Aug-31 23:33N 38°48' W 075°00'63 9.0
2015-Aug-31 16:32N 39°34' W 074°04'10 9.5
2015-Aug-31 15:32N 39°43' W 073°60'46 9.0
2015-Aug-31 10:24N 40°29' W 073°56'6 7.4
2015-Aug-31 09:33N 40°34' W 074°02'9 9.0
2015-Aug-31 08:33N 40°43' W 074°01'1212.1
2015-Aug-31 07:33N 40°54' W 073°56'1 0.0
2015-Aug-29 16:10N 40°53' W 073°56'5 8.3
2015-Aug-29 15:33N 40°49' W 073°58'7 6.7
2015-Aug-29 14:34N 40°42' W 074°00'7 6.4
2015-Aug-29 13:30N 40°48' W 073°55'1 0.6
2015-Aug-29 12:32N 40°48' W 073°54'0 0.0
2015-Aug-29 11:33N 40°48' W 073°54'0 0.0
2015-Aug-29 10:33N 40°48' W 073°54'0 0.0
2015-Aug-29 09:33N 40°48' W 073°54'0 0.0
2015-Aug-29 08:33N 40°48' W 073°54'0 0.0
2015-Aug-29 07:34N 40°48' W 073°54'0 0.0
2015-Aug-29 06:34N 40°48' W 073°54'0 0.0
2015-Aug-29 05:33N 40°48' W 073°54'0 0.0
2015-Aug-29 04:33N 40°48' W 073°54'0 0.0
2015-Aug-29 03:34N 40°48' W 073°54'0 0.1
2015-Aug-29 02:29N 40°48' W 073°54'4 4.1
2015-Aug-29 01:33N 40°45' W 073°58'7 6.8
2015-Aug-29 00:34N 40°40' W 074°03'1 0.6
2015-Aug-28 23:33N 40°39' W 074°03'0 0.0
2015-Aug-28 22:34N 40°39' W 074°03'0 0.0
2015-Aug-28 21:34N 40°39' W 074°03'0 0.2
2015-Aug-28 20:33N 40°39' W 074°03'0 0.1
2015-Aug-28 19:34N 40°39' W 074°03'0 0.0
2015-Aug-28 18:34N 40°39' W 074°03'4 4.3
2015-Aug-28 17:34N 40°35' W 074°02'10 4.6
2015-Aug-28 15:18N 40°27' W 073°54'39 6.4
2015-Aug-28 09:14N 39°48' W 073°58'5 6.8
2015-Aug-28 08:33N 39°43' W 073°60'7 6.9
2015-Aug-28 07:33N 39°37' W 074°03'7 6.9
2015-Aug-28 06:34N 39°31' W 074°07'55 6.6
2015-Aug-27 22:19N 38°49' W 074°52'4 5.4
2015-Aug-27 21:33N 38°48' W 074°57'4 4.2
2015-Aug-27 20:34N 38°50' W 075°02'5 5.1
2015-Aug-27 19:34N 38°54' W 075°05'6 6.1
2015-Aug-27 18:33N 38°60' W 075°09'16 7.9
2015-Aug-27 16:33N 39°14' W 075°18'8 8.2
2015-Aug-27 15:33N 39°20' W 075°25'5 4.6
2015-Aug-27 14:33N 39°23' W 075°29'7 6.9
2015-Aug-27 13:34N 39°29' W 075°34'6 6.1
2015-Aug-27 12:34N 39°35' W 075°34'6 5.6
2015-Aug-27 11:34N 39°41' W 075°31'8 7.6
2015-Aug-27 10:34N 39°47' W 075°27'9 8.9
2015-Aug-27 09:34N 39°51' W 075°16'0 0.3
2015-Aug-27 08:32N 39°51' W 075°16'0 0.0
2015-Aug-27 07:33N 39°51' W 075°16'0 0.0
2015-Aug-27 06:31N 39°51' W 075°16'0 0.0
2015-Aug-27 05:31N 39°51' W 075°16'0 0.0
2015-Aug-27 04:32N 39°51' W 075°16'0 0.0
2015-Aug-27 03:33N 39°51' W 075°16'0 0.0
2015-Aug-27 02:33N 39°51' W 075°16'0 0.0
2015-Aug-27 01:31N 39°51' W 075°16'0 0.3
2015-Aug-27 00:33N 39°51' W 075°15'4 3.5
2015-Aug-26 23:33N 39°54' W 075°12'0 0.0
2015-Aug-26 22:31N 39°54' W 075°12'0 0.0
2015-Aug-26 21:31N 39°54' W 075°12'0 0.0
2015-Aug-26 20:32N 39°54' W 075°12'0 0.0
2015-Aug-26 19:33N 39°54' W 075°12'0 0.1
2015-Aug-26 18:33N 39°54' W 075°12'0 0.0
2015-Aug-26 17:33N 39°54' W 075°12'0 0.0
2015-Aug-26 16:31N 39°54' W 075°12'0 0.0
2015-Aug-26 15:32N 39°54' W 075°12'0 0.0
2015-Aug-26 14:34N 39°54' W 075°12'0 0.0
2015-Aug-26 13:33N 39°54' W 075°12'0 0.0
2015-Aug-26 12:33N 39°54' W 075°12'0 0.1
2015-Aug-26 11:33N 39°54' W 075°12'0 0.0
2015-Aug-26 10:33N 39°54' W 075°12'0 0.0
2015-Aug-26 09:33N 39°54' W 075°12'1 0.6
2015-Aug-26 08:33N 39°53' W 075°12'4 4.2
2015-Aug-26 07:33N 39°51' W 075°16'5 5.2
2015-Aug-26 06:33N 39°49' W 075°23'6 6.3
2015-Aug-26 05:33N 39°51' W 075°15'3 3.2
2015-Aug-26 04:33N 39°54' W 075°12'0 0.1
2015-Aug-26 03:33N 39°54' W 075°12'0 0.0
2015-Aug-26 02:33N 39°54' W 075°12'0 0.0
2015-Aug-26 01:33N 39°54' W 075°12'0 0.0
2015-Aug-26 00:33N 39°54' W 075°12'0 0.0
2015-Aug-25 23:33N 39°54' W 075°12'0 0.0
2015-Aug-25 22:33N 39°54' W 075°12'0 0.0
2015-Aug-25 21:33N 39°54' W 075°12'0 0.0
2015-Aug-25 20:33N 39°54' W 075°12'0 0.0
2015-Aug-25 19:33N 39°54' W 075°12'0 0.0
2015-Aug-25 18:33N 39°54' W 075°12'0 0.0
2015-Aug-25 17:33N 39°54' W 075°12'0 0.0
2015-Aug-25 16:33N 39°54' W 075°12'0 0.0
2015-Aug-25 15:33N 39°54' W 075°12'0 0.0
2015-Aug-25 14:33N 39°54' W 075°12'0 0.0
2015-Aug-25 13:33N 39°54' W 075°12'0 0.0
2015-Aug-25 12:33N 39°54' W 075°12'0 0.0
2015-Aug-25 11:33N 39°54' W 075°12'0 0.0
2015-Aug-25 10:33N 39°54' W 075°12'0 0.0
2015-Aug-25 09:33N 39°54' W 075°12'0 0.0
2015-Aug-25 08:33N 39°54' W 075°12'0 0.0
2015-Aug-25 07:33N 39°54' W 075°12'0 0.0
2015-Aug-25 06:33N 39°54' W 075°12'0 0.0
2015-Aug-25 05:33N 39°54' W 075°12'0 0.0
2015-Aug-25 04:33N 39°54' W 075°12'0 0.0
2015-Aug-25 03:33N 39°54' W 075°12'0 0.0
2015-Aug-25 02:33N 39°54' W 075°12'0 0.0
2015-Aug-25 01:33N 39°54' W 075°12'0 0.0
2015-Aug-25 00:33N 39°54' W 075°12'0 0.0
2015-Aug-24 23:33N 39°54' W 075°12'0 0.1
2015-Aug-24 22:33N 39°54' W 075°12'1 0.5
2015-Aug-24 21:33N 39°53' W 075°12'1 0.5
2015-Aug-24 20:33N 39°54' W 075°12'0 0.0
2015-Aug-24 19:33N 39°54' W 075°12'0 0.0
2015-Aug-24 18:33N 39°54' W 075°12'0 0.0
2015-Aug-24 17:33N 39°54' W 075°12'0 0.0
2015-Aug-24 16:33N 39°54' W 075°12'0 0.0
2015-Aug-24 15:33N 39°54' W 075°12'1 1.1
2015-Aug-24 14:33N 39°53' W 075°11'1 1.2
2015-Aug-24 13:33N 39°54' W 075°12'0 0.0
2015-Aug-24 12:33N 39°54' W 075°12'0 0.0
2015-Aug-24 11:33N 39°54' W 075°12'0 0.0
2015-Aug-24 10:33N 39°54' W 075°12'0 0.0
2015-Aug-24 09:33N 39°54' W 075°12'0 0.0
2015-Aug-24 08:33N 39°54' W 075°12'0 0.0
2015-Aug-24 07:33N 39°54' W 075°12'0 0.0
2015-Aug-24 06:33N 39°54' W 075°12'0 0.0
2015-Aug-24 05:33N 39°54' W 075°12'0 0.1
2015-Aug-24 04:33N 39°54' W 075°12'3 3.0
2015-Aug-24 03:33N 39°51' W 075°15'8 7.9
2015-Aug-24 02:33N 39°48' W 075°24'4 4.1
2015-Aug-24 01:33N 39°46' W 075°29'8 8.5
2015-Aug-24 00:33N 39°38' W 075°34'9 8.7
2015-Aug-23 23:33N 39°30' W 075°33'10 9.7
2015-Aug-23 22:33N 39°22' W 075°27'1110.5
2015-Aug-23 21:33N 39°14' W 075°18'1010.3
2015-Aug-23 20:33N 39°05' W 075°11'1010.2
2015-Aug-23 19:33N 38°56' W 075°05'9 9.3
2015-Aug-23 18:33N 38°48' W 074°58'6310.1
2015-Aug-23 12:17N 39°36' W 074°05'910.4
2015-Aug-23 11:26N 39°44' W 074°00'910.5
2015-Aug-23 10:33N 39°53' W 073°57'1010.2
2015-Aug-23 09:33N 40°03' W 073°55'1010.0
2015-Aug-23 08:33N 40°13' W 073°55'10 9.9
2015-Aug-23 07:33N 40°23' W 073°54'9 8.6
2015-Aug-23 06:33N 40°31' W 073°59'8 8.4
2015-Aug-23 05:33N 40°39' W 074°04'7 7.3
2015-Aug-23 04:33N 40°45' W 073°58'7 6.7
2015-Aug-23 03:30N 40°48' W 073°50'8 8.3
2015-Aug-23 02:31N 40°54' W 073°42'12 9.3
2015-Aug-23 01:12N 40°59' W 073°28'6 8.6
2015-Aug-23 00:28N 41°02' W 073°20'8 9.2
2015-Aug-22 23:33N 41°05' W 073°10'9 9.2
2015-Aug-22 22:33N 41°10' W 072°59'6 6.1
2015-Aug-22 21:33N 41°15' W 072°55'  
Track history (hours):
 
Tides and Currents Weather Stations Pressure Air Temp Water Temp Dewpoint Dewpoint Depression Visibility Wind Speed Wind Dir Waves Ship Positions

Chesapeake

Owner: Vane Line Bunkering, Baltimore, MD. More information available from US FCC via Universal Licensing System and Coast Guard Vessel Documentation Center.

Last reported at 2015-Sep-01 13:32 UTC. Time now 2015-Sep-01 14:13 UTC.
Position N 39°54' W 075°12'.

Length 34 m; draft 16 m.

Type: Tug. MMSI: 367123040.

Date/timePositionNaut miles runAvg speedWind from/ knotsBaromVisibWave heightAir tempDewpointWater temp
2015-Sep-01 13:32N 39°54' W 075°12'0 0.0
2015-Sep-01 12:33N 39°54' W 075°12'0 0.0
2015-Sep-01 11:31N 39°54' W 075°12'0 0.3
2015-Sep-01 10:33N 39°54' W 075°12'4 4.1
2015-Sep-01 09:33N 39°51' W 075°16'2 2.3
2015-Sep-01 08:33N 39°51' W 075°19'5 4.9
2015-Sep-01 07:33N 39°48' W 075°24'5 4.6
2015-Sep-01 06:33N 39°45' W 075°29'7 6.7
2015-Sep-01 05:33N 39°39' W 075°33'9 8.7
2015-Sep-01 04:33N 39°31' W 075°33'10 9.7
2015-Sep-01 03:33N 39°22' W 075°27'8 8.3
2015-Sep-01 02:33N 39°16' W 075°20'1212.0
2015-Sep-01 01:32N 39°06' W 075°12'1110.6
2015-Sep-01 00:29N 38°56' W 075°05'8 9.1
2015-Aug-31 23:33N 38°48' W 075°00'63 9.0
2015-Aug-31 16:32N 39°34' W 074°04'10 9.5
2015-Aug-31 15:32N 39°43' W 073°60'46 9.0
2015-Aug-31 10:24N 40°29' W 073°56'6 7.4
2015-Aug-31 09:33N 40°34' W 074°02'9 9.0
2015-Aug-31 08:33N 40°43' W 074°01'1212.1
2015-Aug-31 07:33N 40°54' W 073°56'1 0.0
2015-Aug-29 16:10N 40°53' W 073°56'5 8.3
2015-Aug-29 15:33N 40°49' W 073°58'7 6.7
2015-Aug-29 14:34N 40°42' W 074°00'7 6.4
2015-Aug-29 13:30N 40°48' W 073°55'1 0.6
2015-Aug-29 12:32N 40°48' W 073°54'0 0.0
2015-Aug-29 11:33N 40°48' W 073°54'0 0.0
2015-Aug-29 10:33N 40°48' W 073°54'0 0.0
2015-Aug-29 09:33N 40°48' W 073°54'0 0.0
2015-Aug-29 08:33N 40°48' W 073°54'0 0.0
2015-Aug-29 07:34N 40°48' W 073°54'0 0.0
2015-Aug-29 06:34N 40°48' W 073°54'0 0.0
2015-Aug-29 05:33N 40°48' W 073°54'0 0.0
2015-Aug-29 04:33N 40°48' W 073°54'0 0.0
2015-Aug-29 03:34N 40°48' W 073°54'0 0.1
2015-Aug-29 02:29N 40°48' W 073°54'4 4.1
2015-Aug-29 01:33N 40°45' W 073°58'7 6.8
2015-Aug-29 00:34N 40°40' W 074°03'1 0.6
2015-Aug-28 23:33N 40°39' W 074°03'0 0.0
2015-Aug-28 22:34N 40°39' W 074°03'0 0.0
2015-Aug-28 21:34N 40°39' W 074°03'0 0.2
2015-Aug-28 20:33N 40°39' W 074°03'0 0.1
2015-Aug-28 19:34N 40°39' W 074°03'0 0.0
2015-Aug-28 18:34N 40°39' W 074°03'4 4.3
2015-Aug-28 17:34N 40°35' W 074°02'10 4.6
2015-Aug-28 15:18N 40°27' W 073°54'39 6.4
2015-Aug-28 09:14N 39°48' W 073°58'5 6.8
2015-Aug-28 08:33N 39°43' W 073°60'7 6.9
2015-Aug-28 07:33N 39°37' W 074°03'7 6.9
2015-Aug-28 06:34N 39°31' W 074°07'55 6.6
2015-Aug-27 22:19N 38°49' W 074°52'4 5.4
2015-Aug-27 21:33N 38°48' W 074°57'4 4.2
2015-Aug-27 20:34N 38°50' W 075°02'5 5.1
2015-Aug-27 19:34N 38°54' W 075°05'6 6.1
2015-Aug-27 18:33N 38°60' W 075°09'16 7.9
2015-Aug-27 16:33N 39°14' W 075°18'8 8.2
2015-Aug-27 15:33N 39°20' W 075°25'5 4.6
2015-Aug-27 14:33N 39°23' W 075°29'7 6.9
2015-Aug-27 13:34N 39°29' W 075°34'6 6.1
2015-Aug-27 12:34N 39°35' W 075°34'6 5.6
2015-Aug-27 11:34N 39°41' W 075°31'8 7.6
2015-Aug-27 10:34N 39°47' W 075°27'9 8.9
2015-Aug-27 09:34N 39°51' W 075°16'0 0.3
2015-Aug-27 08:32N 39°51' W 075°16'0 0.0
2015-Aug-27 07:33N 39°51' W 075°16'0 0.0
2015-Aug-27 06:31N 39°51' W 075°16'0 0.0
2015-Aug-27 05:31N 39°51' W 075°16'0 0.0
2015-Aug-27 04:32N 39°51' W 075°16'0 0.0
2015-Aug-27 03:33N 39°51' W 075°16'0 0.0
2015-Aug-27 02:33N 39°51' W 075°16'0 0.0
2015-Aug-27 01:31N 39°51' W 075°16'0 0.3
2015-Aug-27 00:33N 39°51' W 075°15'4 3.5
2015-Aug-26 23:33N 39°54' W 075°12'0 0.0
2015-Aug-26 22:31N 39°54' W 075°12'0 0.0
2015-Aug-26 21:31N 39°54' W 075°12'0 0.0
2015-Aug-26 20:32N 39°54' W 075°12'0 0.0
2015-Aug-26 19:33N 39°54' W 075°12'0 0.1
2015-Aug-26 18:33N 39°54' W 075°12'0 0.0
2015-Aug-26 17:33N 39°54' W 075°12'0 0.0
2015-Aug-26 16:31N 39°54' W 075°12'0 0.0
2015-Aug-26 15:32N 39°54' W 075°12'0 0.0
2015-Aug-26 14:34N 39°54' W 075°12'0 0.0
2015-Aug-26 13:33N 39°54' W 075°12'0 0.0
2015-Aug-26 12:33N 39°54' W 075°12'0 0.1
2015-Aug-26 11:33N 39°54' W 075°12'0 0.0
2015-Aug-26 10:33N 39°54' W 075°12'0 0.0
2015-Aug-26 09:33N 39°54' W 075°12'1 0.6
2015-Aug-26 08:33N 39°53' W 075°12'4 4.2
2015-Aug-26 07:33N 39°51' W 075°16'5 5.2
2015-Aug-26 06:33N 39°49' W 075°23'6 6.3
2015-Aug-26 05:33N 39°51' W 075°15'3 3.2
2015-Aug-26 04:33N 39°54' W 075°12'0 0.1
2015-Aug-26 03:33N 39°54' W 075°12'0 0.0
2015-Aug-26 02:33N 39°54' W 075°12'0 0.0
2015-Aug-26 01:33N 39°54' W 075°12'0 0.0
2015-Aug-26 00:33N 39°54' W 075°12'0 0.0
2015-Aug-25 23:33N 39°54' W 075°12'0 0.0
2015-Aug-25 22:33N 39°54' W 075°12'0 0.0
2015-Aug-25 21:33N 39°54' W 075°12'0 0.0
2015-Aug-25 20:33N 39°54' W 075°12'0 0.0
2015-Aug-25 19:33N 39°54' W 075°12'0 0.0
2015-Aug-25 18:33N 39°54' W 075°12'0 0.0
2015-Aug-25 17:33N 39°54' W 075°12'0 0.0
2015-Aug-25 16:33N 39°54' W 075°12'0 0.0
2015-Aug-25 15:33N 39°54' W 075°12'0 0.0
2015-Aug-25 14:33N 39°54' W 075°12'0 0.0
2015-Aug-25 13:33N 39°54' W 075°12'0 0.0
2015-Aug-25 12:33N 39°54' W 075°12'0 0.0
2015-Aug-25 11:33N 39°54' W 075°12'0 0.0
2015-Aug-25 10:33N 39°54' W 075°12'0 0.0
2015-Aug-25 09:33N 39°54' W 075°12'0 0.0
2015-Aug-25 08:33N 39°54' W 075°12'0 0.0
2015-Aug-25 07:33N 39°54' W 075°12'0 0.0
2015-Aug-25 06:33N 39°54' W 075°12'0 0.0
2015-Aug-25 05:33N 39°54' W 075°12'0 0.0
2015-Aug-25 04:33N 39°54' W 075°12'0 0.0
2015-Aug-25 03:33N 39°54' W 075°12'0 0.0
2015-Aug-25 02:33N 39°54' W 075°12'0 0.0
2015-Aug-25 01:33N 39°54' W 075°12'0 0.0
2015-Aug-25 00:33N 39°54' W 075°12'0 0.0
2015-Aug-24 23:33N 39°54' W 075°12'0 0.1
2015-Aug-24 22:33N 39°54' W 075°12'1 0.5
2015-Aug-24 21:33N 39°53' W 075°12'1 0.5
2015-Aug-24 20:33N 39°54' W 075°12'0 0.0
2015-Aug-24 19:33N 39°54' W 075°12'0 0.0
2015-Aug-24 18:33N 39°54' W 075°12'0 0.0
2015-Aug-24 17:33N 39°54' W 075°12'0 0.0
2015-Aug-24 16:33N 39°54' W 075°12'0 0.0
2015-Aug-24 15:33N 39°54' W 075°12'1 1.1
2015-Aug-24 14:33N 39°53' W 075°11'1 1.2
2015-Aug-24 13:33N 39°54' W 075°12'0 0.0
2015-Aug-24 12:33N 39°54' W 075°12'0 0.0
2015-Aug-24 11:33N 39°54' W 075°12'0 0.0
2015-Aug-24 10:33N 39°54' W 075°12'0 0.0
2015-Aug-24 09:33N 39°54' W 075°12'0 0.0
2015-Aug-24 08:33N 39°54' W 075°12'0 0.0
2015-Aug-24 07:33N 39°54' W 075°12'0 0.0
2015-Aug-24 06:33N 39°54' W 075°12'0 0.0
2015-Aug-24 05:33N 39°54' W 075°12'0 0.1
2015-Aug-24 04:33N 39°54' W 075°12'3 3.0
2015-Aug-24 03:33N 39°51' W 075°15'8 7.9
2015-Aug-24 02:33N 39°48' W 075°24'4 4.1
2015-Aug-24 01:33N 39°46' W 075°29'8 8.5
2015-Aug-24 00:33N 39°38' W 075°34'9 8.7
2015-Aug-23 23:33N 39°30' W 075°33'10 9.7
2015-Aug-23 22:33N 39°22' W 075°27'1110.5
2015-Aug-23 21:33N 39°14' W 075°18'1010.3
2015-Aug-23 20:33N 39°05' W 075°11'1010.2
2015-Aug-23 19:33N 38°56' W 075°05'9 9.3
2015-Aug-23 18:33N 38°48' W 074°58'6310.1
2015-Aug-23 12:17N 39°36' W 074°05'910.4
2015-Aug-23 11:26N 39°44' W 074°00'910.5
2015-Aug-23 10:33N 39°53' W 073°57'1010.2
2015-Aug-23 09:33N 40°03' W 073°55'1010.0
2015-Aug-23 08:33N 40°13' W 073°55'10 9.9
2015-Aug-23 07:33N 40°23' W 073°54'9 8.6
2015-Aug-23 06:33N 40°31' W 073°59'8 8.4
2015-Aug-23 05:33N 40°39' W 074°04'7 7.3
2015-Aug-23 04:33N 40°45' W 073°58'7 6.7
2015-Aug-23 03:30N 40°48' W 073°50'8 8.3
2015-Aug-23 02:31N 40°54' W 073°42'12 9.3
2015-Aug-23 01:12N 40°59' W 073°28'6 8.6
2015-Aug-23 00:28N 41°02' W 073°20'8 9.2
2015-Aug-22 23:33N 41°05' W 073°10'9 9.2
2015-Aug-22 22:33N 41°10' W 072°59'6 6.1
2015-Aug-22 21:33N 41°15' W 072°55'  

Dump ship's entire track history